createdAt,value
2019-01-29T00:00:54.169Z,12.80
2019-01-29T00:03:23.479Z,10.57
2019-01-29T00:05:52.805Z,11.43
2019-01-29T00:08:22.139Z,18.67
2019-01-29T00:10:51.493Z,14.00
2019-01-29T00:13:20.803Z,10.63
2019-01-29T00:15:50.173Z,15.20
2019-01-29T00:18:19.522Z,17.03
2019-01-29T00:20:48.945Z,11.30
2019-01-29T00:23:18.251Z,13.40
2019-01-29T00:25:47.596Z,13.13
2019-01-29T00:28:16.898Z,14.03
2019-01-29T00:30:46.252Z,10.50
2019-01-29T00:33:15.602Z,11.07
2019-01-29T00:35:44.972Z,12.10
2019-01-29T00:38:14.391Z,16.27
2019-01-29T00:40:43.593Z,16.27
2019-01-29T00:43:12.891Z,13.70
2019-01-29T00:45:42.267Z,19.87
2019-01-29T00:48:11.584Z,12.47
2019-01-29T00:50:41.000Z,17.03
2019-01-29T00:53:10.298Z,13.43
2019-01-29T00:55:39.599Z,13.87
2019-01-29T00:58:09.055Z,12.10
2019-01-29T01:00:38.413Z,11.57
2019-01-29T01:03:07.735Z,16.10
2019-01-29T01:05:37.064Z,18.70
2019-01-29T01:08:06.313Z,21.43
2019-01-29T01:10:35.590Z,18.83
2019-01-29T01:13:04.887Z,19.80
2019-01-29T01:15:34.189Z,17.27
2019-01-29T01:18:03.493Z,11.27
2019-01-29T01:20:32.917Z,20.97
2019-01-29T01:23:02.225Z,17.80
2019-01-29T01:25:31.567Z,16.60
2019-01-29T01:28:00.919Z,19.77
2019-01-29T01:30:30.229Z,15.17
2019-01-29T01:32:59.725Z,13.70
2019-01-29T01:35:29.001Z,18.20
2019-01-29T01:37:58.349Z,19.30
2019-01-29T01:40:27.817Z,17.63
2019-01-29T01:42:57.135Z,16.90
2019-01-29T01:45:26.539Z,13.97
2019-01-29T01:47:55.891Z,19.50
2019-01-29T01:50:25.223Z,17.57
2019-01-29T01:52:59.290Z,14.63
2019-01-29T01:55:23.839Z,18.93
2019-01-29T01:57:53.207Z,14.70
2019-01-29T02:00:22.646Z,12.73
2019-01-29T02:02:51.980Z,16.67
2019-01-29T02:05:21.357Z,23.40
2019-01-29T02:07:50.649Z,14.17
2019-01-29T02:10:22.327Z,17.47
2019-01-29T02:12:51.664Z,17.73
2019-01-29T02:15:20.989Z,17.17
2019-01-29T02:17:50.277Z,19.47
2019-01-29T02:20:19.609Z,14.23
2019-01-29T02:22:48.915Z,21.10
2019-01-29T02:25:18.192Z,22.43
2019-01-29T02:27:47.531Z,20.20
2019-01-29T02:30:18.854Z,17.57
2019-01-29T02:32:48.165Z,15.83
2019-01-29T02:35:17.490Z,15.43
2019-01-29T02:37:46.806Z,20.47
2019-01-29T02:40:21.417Z,20.77
2019-01-29T02:42:50.729Z,18.03
2019-01-29T02:45:20.095Z,24.40
2019-01-29T02:47:49.416Z,16.80
2019-01-29T02:50:18.742Z,18.07
2019-01-29T02:52:48.033Z,13.10
2019-01-29T02:55:17.379Z,19.10
2019-01-29T02:57:46.778Z,19.93
2019-01-29T03:00:18.373Z,19.37
2019-01-29T03:02:47.722Z,19.67
2019-01-29T03:05:17.027Z,15.10
2019-01-29T03:07:46.495Z,16.90
2019-01-29T03:10:18.019Z,13.93
2019-01-29T03:12:47.332Z,14.43
2019-01-29T03:15:18.831Z,16.33
2019-01-29T03:17:48.116Z,18.87
2019-01-29T03:20:17.442Z,15.47
2019-01-29T03:22:46.713Z,18.53
2019-01-29T03:25:15.982Z,22.17
2019-01-29T03:27:45.373Z,20.77
2019-01-29T03:30:16.053Z,15.73
2019-01-29T03:32:45.389Z,17.83
2019-01-29T03:35:14.632Z,18.77
2019-01-29T03:37:43.891Z,14.47
2019-01-29T03:40:15.254Z,24.97
2019-01-29T03:42:44.545Z,12.63
2019-01-29T03:45:15.529Z,13.10
2019-01-29T03:47:44.789Z,15.13
2019-01-29T03:50:15.475Z,15.60
2019-01-29T03:52:44.739Z,15.90
2019-01-29T03:55:14.039Z,18.93
2019-01-29T03:57:43.301Z,13.57
2019-01-29T04:00:15.319Z,17.37
2019-01-29T04:02:44.621Z,13.67
2019-01-29T04:05:13.876Z,15.63
2019-01-29T04:07:43.122Z,17.97
2019-01-29T04:10:15.569Z,15.57
2019-01-29T04:12:42.892Z,17.30
2019-01-29T04:15:14.165Z,16.70
2019-01-29T04:17:43.440Z,21.53
2019-01-29T04:20:15.364Z,13.50
2019-01-29T04:22:45.940Z,17.43
2019-01-29T04:25:13.893Z,20.17
2019-01-29T04:27:43.334Z,14.60
2019-01-29T04:30:18.062Z,12.67
2019-01-29T04:32:47.336Z,18.70
2019-01-29T04:35:16.666Z,24.33
2019-01-29T04:37:46.017Z,16.10
2019-01-29T04:40:17.096Z,16.00
2019-01-29T04:42:46.451Z,16.33
2019-01-29T04:45:16.115Z,15.30
2019-01-29T04:47:45.474Z,17.93
2019-01-29T04:50:19.567Z,17.60
2019-01-29T04:52:48.860Z,16.53
2019-01-29T04:55:18.279Z,19.87
2019-01-29T04:57:47.585Z,18.30
2019-01-29T05:00:19.014Z,17.27
2019-01-29T05:02:48.394Z,15.27
2019-01-29T05:05:18.622Z,15.70
2019-01-29T05:07:48.052Z,13.10
2019-01-29T05:10:17.492Z,11.80
2019-01-29T05:12:46.766Z,12.17
2019-01-29T05:15:16.332Z,11.20
2019-01-29T05:17:45.655Z,11.60
2019-01-29T05:20:17.524Z,11.80
2019-01-29T05:22:46.829Z,14.13
2019-01-29T05:25:16.288Z,11.63
2019-01-29T05:27:45.655Z,14.50
2019-01-29T05:30:20.765Z,14.27
2019-01-29T05:32:49.000Z,12.13
2019-01-29T05:35:18.359Z,12.23
2019-01-29T05:37:47.723Z,13.60
2019-01-29T05:40:17.994Z,17.63
2019-01-29T05:42:47.248Z,14.10
2019-01-29T05:45:17.687Z,14.33
2019-01-29T05:47:46.942Z,13.93
2019-01-29T05:50:16.207Z,15.17
2019-01-29T05:52:45.482Z,18.20
2019-01-29T05:55:14.852Z,17.30
2019-01-29T05:57:44.080Z,23.23
2019-01-29T06:00:21.178Z,13.33
2019-01-29T06:02:50.562Z,13.00
2019-01-29T06:05:19.883Z,16.40
2019-01-29T06:07:49.272Z,16.27
2019-01-29T06:10:18.581Z,17.33
2019-01-29T06:12:47.883Z,19.67
2019-01-29T06:15:18.228Z,17.60
2019-01-29T06:17:47.503Z,14.77
2019-01-29T06:20:21.547Z,17.30
2019-01-29T06:22:50.777Z,14.30
2019-01-29T06:25:20.040Z,13.60
2019-01-29T06:27:49.414Z,13.57
2019-01-29T06:30:19.802Z,13.77
2019-01-29T06:32:49.127Z,12.23
2019-01-29T06:35:18.778Z,13.90
2019-01-29T06:37:48.067Z,15.83
2019-01-29T06:40:19.304Z,14.53
2019-01-29T06:42:48.633Z,13.40
2019-01-29T06:45:18.554Z,12.03
2019-01-29T06:47:47.938Z,14.93
2019-01-29T06:50:19.171Z,11.10
2019-01-29T06:52:48.586Z,16.17
2019-01-29T06:55:19.189Z,13.83
2019-01-29T06:57:55.090Z,9.90
2019-01-29T07:00:20.316Z,13.43
2019-01-29T07:02:49.850Z,15.53
2019-01-29T07:05:19.226Z,15.33
2019-01-29T07:07:48.900Z,14.47
2019-01-29T07:10:18.832Z,14.07
2019-01-29T07:12:48.310Z,12.27
2019-01-29T07:15:41.163Z,11.53
2019-01-29T07:18:29.820Z,9.73
2019-01-29T07:20:59.095Z,11.03
2019-01-29T07:23:28.422Z,16.73
2019-01-29T07:25:57.742Z,12.00
2019-01-29T07:28:27.032Z,12.73
2019-01-29T07:30:56.426Z,13.37
2019-01-29T07:33:25.830Z,16.63
2019-01-29T07:35:55.129Z,18.63
2019-01-29T07:38:24.743Z,15.17
2019-01-29T07:40:54.308Z,15.53
2019-01-29T07:43:23.649Z,21.47
2019-01-29T07:45:52.935Z,18.60
2019-01-29T07:48:22.266Z,19.83
2019-01-29T07:50:51.563Z,14.97
2019-01-29T07:53:21.013Z,20.80
2019-01-29T07:55:50.202Z,20.80
2019-01-29T07:58:19.547Z,17.40
2019-01-29T08:00:48.855Z,20.53
2019-01-29T08:03:18.556Z,18.20
2019-01-29T08:05:47.850Z,16.67
2019-01-29T08:08:17.119Z,14.80
2019-01-29T08:10:46.452Z,17.30
2019-01-29T08:13:15.879Z,15.93
2019-01-29T08:15:45.365Z,18.60
2019-01-29T08:18:14.798Z,16.70
2019-01-29T08:20:44.192Z,15.53
2019-01-29T08:23:13.690Z,17.87
2019-01-29T08:25:47.844Z,17.60
2019-01-29T08:28:12.395Z,18.90
2019-01-29T08:30:41.723Z,15.33
2019-01-29T08:33:10.995Z,14.40
2019-01-29T08:35:41.658Z,14.33
2019-01-29T08:38:09.717Z,16.17
2019-01-29T08:40:39.075Z,11.70
2019-01-29T08:43:08.286Z,10.87
2019-01-29T08:45:37.572Z,15.57
2019-01-29T08:48:06.897Z,19.63
2019-01-29T08:50:36.240Z,10.33
2019-01-29T08:53:05.638Z,8.83
2019-01-29T08:55:34.902Z,16.63
2019-01-29T08:58:04.375Z,11.87
2019-01-29T09:00:33.735Z,14.33
2019-01-29T09:03:03.149Z,13.97
2019-01-29T09:05:32.622Z,12.30
2019-01-29T09:08:02.065Z,16.40
2019-01-29T09:10:31.327Z,12.10
2019-01-29T09:13:00.620Z,14.43
2019-01-29T09:15:30.046Z,11.70
2019-01-29T09:17:59.352Z,15.10
2019-01-29T09:20:28.668Z,7.57
2019-01-29T09:22:58.268Z,10.17
2019-01-29T09:25:27.641Z,11.53
2019-01-29T09:27:57.091Z,11.37
2019-01-29T09:30:26.633Z,14.33
2019-01-29T09:32:56.054Z,12.47
2019-01-29T09:35:25.428Z,11.47
2019-01-29T09:37:55.049Z,12.40
2019-01-29T09:40:24.465Z,13.03
2019-01-29T09:42:53.817Z,13.73
2019-01-29T09:45:23.242Z,11.67
2019-01-29T09:47:52.609Z,9.10
2019-01-29T09:50:22.338Z,15.50
2019-01-29T09:52:51.733Z,9.10
2019-01-29T09:55:29.010Z,11.10
2019-01-29T09:57:50.659Z,15.23
2019-01-29T10:00:33.672Z,14.13
2019-01-29T10:03:03.073Z,12.90
2019-01-29T10:05:32.406Z,13.27
2019-01-29T10:08:01.847Z,14.03
2019-01-29T10:10:31.078Z,11.73
2019-01-29T10:13:00.403Z,10.77
2019-01-29T10:15:32.649Z,14.07
2019-01-29T10:18:02.967Z,12.13
2019-01-29T10:20:32.390Z,12.47
2019-01-29T10:23:05.753Z,10.33
2019-01-29T10:25:37.978Z,14.63
2019-01-29T10:28:02.529Z,15.17
2019-01-29T10:30:31.869Z,17.23
2019-01-29T10:33:01.187Z,14.83
2019-01-29T10:35:30.526Z,17.53
2019-01-29T10:37:59.933Z,12.40
2019-01-29T10:40:29.342Z,8.07
2019-01-29T10:42:58.744Z,9.17
2019-01-29T10:45:28.996Z,16.10
2019-01-29T10:47:58.405Z,19.83
2019-01-29T10:50:28.432Z,12.03
2019-01-29T10:52:57.953Z,11.47
2019-01-29T10:55:27.333Z,12.47
2019-01-29T10:57:56.650Z,12.30
2019-01-29T11:00:32.358Z,16.27
2019-01-29T11:03:01.664Z,11.23
2019-01-29T11:05:31.099Z,11.37
2019-01-29T11:08:00.292Z,18.17
2019-01-29T11:10:29.599Z,9.13
2019-01-29T11:12:58.955Z,10.97
2019-01-29T11:15:32.159Z,12.30
2019-01-29T11:18:00.686Z,10.23
2019-01-29T11:20:30.166Z,13.30
2019-01-29T11:22:59.483Z,15.67
2019-01-29T11:25:29.427Z,13.13
2019-01-29T11:27:58.810Z,13.17
2019-01-29T11:30:29.075Z,15.63
2019-01-29T11:32:58.394Z,8.60
2019-01-29T11:35:27.739Z,13.30
2019-01-29T11:37:57.083Z,12.83
2019-01-29T11:40:28.064Z,12.53
2019-01-29T11:42:57.322Z,11.33
2019-01-29T11:45:38.924Z,11.03
2019-01-29T11:48:08.222Z,15.80
2019-01-29T11:50:37.562Z,13.27
2019-01-29T11:53:07.020Z,14.57
2019-01-29T11:55:36.383Z,15.30
2019-01-29T11:58:06.018Z,17.87
2019-01-29T12:00:47.627Z,18.40
2019-01-29T12:03:17.385Z,20.10
2019-01-29T12:05:46.691Z,22.50
2019-01-29T12:08:16.198Z,21.63
2019-01-29T12:10:45.564Z,22.40
2019-01-29T12:13:14.987Z,24.80
2019-01-29T12:15:44.345Z,22.87
2019-01-29T12:18:13.721Z,25.20
2019-01-29T12:20:43.063Z,27.87
2019-01-29T12:23:12.619Z,21.67
2019-01-29T12:25:41.899Z,26.33
2019-01-29T12:28:11.220Z,30.07
2019-01-29T12:30:40.558Z,29.47
2019-01-29T12:33:10.740Z,26.33
2019-01-29T12:35:40.259Z,26.63
2019-01-29T12:38:09.607Z,33.00
2019-01-29T12:40:38.907Z,31.63
2019-01-29T12:43:08.235Z,32.27
2019-01-29T12:45:37.664Z,29.80
2019-01-29T12:48:06.984Z,34.40
2019-01-29T12:50:36.270Z,32.57
2019-01-29T12:53:17.041Z,29.23
2019-01-29T12:55:46.491Z,36.97
2019-01-29T12:58:15.869Z,29.90
2019-01-29T13:00:47.541Z,32.20
2019-01-29T13:03:16.855Z,35.80
2019-01-29T13:05:46.211Z,29.10
2019-01-29T13:08:15.559Z,28.70
2019-01-29T13:10:44.904Z,30.77
2019-01-29T13:13:14.256Z,30.10
2019-01-29T13:15:43.640Z,35.83
2019-01-29T13:18:12.965Z,31.63
2019-01-29T13:20:42.252Z,32.47
2019-01-29T13:23:11.655Z,30.73
2019-01-29T13:25:40.986Z,30.47
2019-01-29T13:28:10.300Z,39.73
2019-01-29T13:30:39.729Z,31.13
2019-01-29T13:33:11.705Z,27.53
2019-01-29T13:35:41.147Z,31.67
2019-01-29T13:38:10.513Z,25.47
2019-01-29T13:40:39.792Z,29.57
2019-01-29T13:43:09.113Z,32.50
2019-01-29T13:45:38.515Z,26.13
2019-01-29T13:48:07.886Z,34.93
2019-01-29T13:50:40.329Z,34.33
2019-01-29T13:53:09.721Z,27.40
2019-01-29T13:55:39.033Z,29.17
2019-01-29T13:58:08.773Z,28.00
2019-01-29T14:00:40.691Z,32.07
2019-01-29T14:03:11.125Z,28.20
2019-01-29T14:05:40.425Z,27.03
2019-01-29T14:08:09.809Z,25.03
2019-01-29T14:10:39.082Z,24.13
2019-01-29T14:13:08.375Z,23.43
2019-01-29T14:15:49.551Z,27.67
2019-01-29T14:18:20.520Z,27.10
2019-01-29T14:20:49.815Z,24.33
2019-01-29T14:23:19.178Z,25.93
2019-01-29T14:25:48.484Z,24.77
2019-01-29T14:28:17.780Z,23.40
2019-01-29T14:30:47.066Z,25.80
2019-01-29T14:33:16.356Z,20.57
2019-01-29T14:35:45.699Z,22.87
2019-01-29T14:39:17.878Z,21.83
2019-01-29T14:41:47.176Z,23.53
2019-01-29T14:44:28.233Z,19.93
2019-01-29T14:46:57.524Z,25.67
2019-01-29T14:49:26.826Z,23.00
2019-01-29T14:51:56.069Z,17.83
2019-01-29T14:54:25.372Z,23.10
2019-01-29T14:56:56.959Z,24.00
2019-01-29T14:59:24.004Z,22.20
2019-01-29T15:01:53.254Z,19.23
2019-01-29T15:04:22.556Z,19.13
2019-01-29T15:06:51.889Z,19.67
2019-01-29T15:09:21.203Z,19.80
2019-01-29T15:11:50.515Z,23.40
2019-01-29T15:14:19.803Z,26.53
2019-01-29T15:17:20.553Z,25.43
2019-01-29T15:19:49.848Z,23.60
2019-01-29T15:22:19.226Z,21.10
2019-01-29T15:24:48.558Z,24.37
2019-01-29T15:27:17.920Z,22.53
2019-01-29T15:29:47.231Z,21.47
2019-01-29T15:32:16.512Z,23.50
2019-01-29T15:34:45.843Z,22.40
2019-01-29T15:37:15.267Z,23.23
2019-01-29T15:39:44.551Z,23.27
2019-01-29T15:42:13.879Z,21.00
2019-01-29T15:44:43.167Z,20.93
2019-01-29T15:47:12.515Z,24.43
2019-01-29T15:49:41.820Z,25.27
2019-01-29T15:52:11.118Z,19.53
2019-01-29T15:54:40.392Z,20.50
2019-01-29T15:57:14.334Z,23.47
2019-01-29T15:59:43.129Z,23.50
2019-01-29T16:02:08.356Z,26.27
2019-01-29T16:04:37.739Z,26.00
2019-01-29T16:07:07.089Z,23.03
2019-01-29T16:09:36.446Z,28.57
2019-01-29T16:12:06.113Z,26.67
2019-01-29T16:14:35.494Z,23.63
2019-01-29T16:17:04.905Z,24.97
2019-01-29T16:19:34.227Z,24.63
2019-01-29T16:22:03.560Z,25.60
2019-01-29T16:24:32.939Z,31.47
2019-01-29T16:27:06.937Z,24.57
2019-01-29T16:29:31.697Z,24.53
2019-01-29T16:32:01.059Z,21.90
2019-01-29T16:34:30.525Z,28.10
2019-01-29T16:36:59.971Z,26.47
2019-01-29T16:39:29.287Z,26.10
2019-01-29T16:41:58.644Z,25.67
2019-01-29T16:44:28.710Z,23.53
2019-01-29T16:46:58.176Z,21.90
2019-01-29T16:49:27.466Z,23.93
2019-01-29T16:51:56.751Z,22.17
2019-01-29T16:54:26.124Z,24.13
2019-01-29T16:56:55.404Z,19.63
2019-01-29T16:59:24.734Z,23.17
2019-01-29T17:01:54.055Z,24.27
2019-01-29T17:04:23.361Z,25.23
2019-01-29T17:06:52.650Z,24.80
2019-01-29T17:09:22.044Z,22.87
2019-01-29T17:11:51.387Z,22.40
2019-01-29T17:14:20.739Z,23.80
2019-01-29T17:16:50.080Z,24.20
2019-01-29T17:19:19.387Z,25.23
2019-01-29T17:22:12.060Z,21.40
2019-01-29T17:25:01.837Z,29.17
2019-01-29T17:31:25.248Z,18.83
2019-01-29T17:34:39.083Z,23.37
2019-01-29T17:43:20.452Z,21.30
2019-01-29T17:45:52.144Z,22.33
2019-01-29T17:48:21.509Z,16.87
2019-01-29T17:50:50.820Z,18.60
2019-01-29T17:53:20.091Z,19.63
2019-01-29T17:55:49.548Z,17.87
2019-01-29T17:58:18.876Z,12.53
2019-01-29T18:00:54.585Z,14.43
2019-01-29T18:03:24.081Z,16.83
2019-01-29T18:05:53.528Z,13.17
2019-01-29T18:08:22.947Z,20.90
2019-01-29T18:10:52.248Z,16.10
2019-01-29T18:13:21.705Z,16.40
2019-01-29T18:15:51.580Z,10.83
2019-01-29T18:18:20.925Z,19.67
2019-01-29T18:20:50.392Z,13.73
2019-01-29T18:23:19.923Z,15.03
2019-01-29T18:25:49.357Z,12.40
2019-01-29T18:28:18.879Z,18.43
2019-01-29T18:30:48.269Z,16.87
2019-01-29T18:33:17.721Z,20.17
2019-01-29T18:35:47.002Z,19.70
2019-01-29T18:38:16.372Z,14.47
2019-01-29T18:40:51.796Z,17.53
2019-01-29T18:43:21.201Z,15.77
2019-01-29T18:45:50.572Z,21.23
2019-01-29T18:48:19.979Z,18.30
2019-01-29T18:50:49.399Z,16.23
2019-01-29T18:53:18.754Z,18.43
2019-01-29T18:55:48.088Z,16.77
2019-01-29T18:58:17.510Z,16.23
2019-01-29T19:00:54.288Z,15.97
2019-01-29T19:03:16.629Z,14.33
2019-01-29T19:05:46.037Z,21.90
2019-01-29T19:08:15.413Z,18.70
2019-01-29T19:10:44.812Z,15.17
2019-01-29T19:13:14.131Z,16.37
2019-01-29T19:15:43.490Z,11.63
2019-01-29T19:18:12.938Z,15.57
2019-01-29T19:20:42.439Z,14.50
2019-01-29T19:23:12.002Z,17.20
2019-01-29T19:25:41.357Z,13.80
2019-01-29T19:28:10.791Z,17.60
2019-01-29T19:30:40.138Z,14.40
2019-01-29T19:33:09.468Z,14.73
2019-01-29T19:35:38.858Z,13.93
2019-01-29T19:38:08.230Z,20.10
2019-01-29T19:40:40.361Z,17.33
2019-01-29T19:43:07.210Z,18.00
2019-01-29T19:45:36.538Z,17.47
2019-01-29T19:48:07.420Z,17.47
2019-01-29T19:50:36.930Z,14.87
2019-01-29T19:53:06.483Z,16.23
2019-01-29T19:55:36.076Z,17.37
2019-01-29T19:58:09.101Z,21.30
2019-01-29T20:00:37.314Z,14.97
2019-01-29T20:03:06.697Z,14.93
2019-01-29T20:05:36.057Z,13.60
2019-01-29T20:08:05.375Z,15.20
2019-01-29T20:10:34.908Z,11.17
2019-01-29T20:13:04.725Z,13.73
2019-01-29T20:15:34.048Z,18.63
2019-01-29T20:18:03.486Z,13.97
2019-01-29T20:20:35.536Z,13.60
2019-01-29T20:23:08.026Z,13.83
2019-01-29T20:25:34.362Z,18.03
2019-01-29T20:28:03.686Z,14.00
2019-01-29T20:30:34.665Z,15.20
2019-01-29T20:33:05.348Z,14.73
2019-01-29T20:35:33.472Z,17.30
2019-01-29T20:38:02.818Z,11.77
2019-01-29T20:40:32.204Z,13.60
2019-01-29T20:43:01.627Z,14.30
2019-01-29T20:45:30.931Z,15.90
2019-01-29T20:48:00.253Z,47.17
2019-01-29T20:50:32.007Z,22.63
2019-01-29T20:53:01.399Z,16.63
2019-01-29T20:55:30.847Z,19.70
2019-01-29T20:58:00.251Z,14.73
2019-01-29T21:00:31.934Z,13.27
2019-01-29T21:03:01.310Z,13.60
2019-01-29T21:05:30.624Z,14.50
2019-01-29T21:08:00.604Z,13.47
2019-01-29T21:10:29.347Z,16.17
2019-01-29T21:12:59.245Z,13.63
2019-01-29T21:15:38.115Z,16.23
2019-01-29T21:18:04.546Z,14.13
2019-01-29T21:20:39.764Z,20.37
2019-01-29T21:23:09.679Z,15.67
2019-01-29T21:25:42.957Z,14.40
2019-01-29T21:28:13.291Z,17.23
2019-01-29T21:30:49.444Z,19.13
2019-01-29T21:33:16.490Z,15.20
2019-01-29T21:35:45.849Z,25.30
2019-01-29T21:38:15.136Z,16.97
2019-01-29T21:40:44.970Z,22.20
2019-01-29T21:43:17.121Z,16.27
2019-01-29T21:45:45.763Z,18.83
2019-01-29T21:48:18.050Z,15.60
2019-01-29T21:50:47.634Z,15.87
2019-01-29T21:53:16.903Z,17.10
2019-01-29T21:55:46.188Z,20.43
2019-01-29T21:58:15.631Z,13.67
2019-01-29T22:00:45.810Z,12.50
2019-01-29T22:03:15.922Z,18.33
2019-01-29T22:05:45.375Z,14.63
2019-01-29T22:08:14.780Z,16.97
2019-01-29T22:10:44.148Z,17.63
2019-01-29T22:13:13.857Z,13.30
2019-01-29T22:15:43.424Z,17.93
2019-01-29T22:18:14.045Z,19.23
2019-01-29T22:20:43.434Z,17.30
2019-01-29T22:23:13.012Z,13.50
2019-01-29T22:25:42.397Z,14.40
2019-01-29T22:28:11.874Z,14.47
2019-01-29T22:30:42.469Z,16.37
2019-01-29T22:33:11.826Z,14.00
2019-01-29T22:35:41.358Z,17.20
2019-01-29T22:38:10.698Z,14.73
2019-01-29T22:40:40.071Z,12.60
2019-01-29T22:43:09.502Z,14.17
2019-01-29T22:45:38.870Z,13.53
2019-01-29T22:48:09.211Z,15.17
2019-01-29T22:50:40.318Z,13.67
2019-01-29T22:53:09.625Z,15.57
2019-01-29T22:55:39.079Z,12.63
2019-01-29T22:58:08.546Z,16.97
2019-01-29T23:01:11.722Z,13.43
2019-01-29T23:03:43.924Z,13.17
2019-01-29T23:06:46.989Z,13.73
2019-01-29T23:09:16.341Z,13.80
2019-01-29T23:11:45.740Z,13.57
2019-01-29T23:14:15.152Z,16.17
2019-01-29T23:16:44.512Z,13.00
2019-01-29T23:19:13.798Z,13.67
2019-01-29T23:21:43.113Z,15.77
2019-01-29T23:24:12.402Z,12.93
2019-01-29T23:26:41.709Z,14.53
2019-01-29T23:29:10.974Z,13.23
2019-01-29T23:31:40.322Z,10.73
2019-01-29T23:34:09.611Z,10.20
2019-01-29T23:36:38.908Z,10.17
2019-01-29T23:39:09.074Z,12.13
2019-01-29T23:41:38.345Z,11.00
2019-01-29T23:44:07.674Z,14.60
2019-01-29T23:46:37.044Z,9.73
2019-01-29T23:49:06.352Z,10.70
2019-01-29T23:51:35.680Z,10.50
2019-01-29T23:54:05.333Z,9.10
2019-01-29T23:56:34.687Z,8.80
2019-01-29T23:59:03.986Z,10.10
